Pueblo Of Acoma, New Mexico
Current Conditions -  °F | °C
As of 1:56 AM on Friday 24 Oct 2014 (Local Time) from KGNT Reporting Station
Clear Clear  
Wind Chill: 33°   Ceiling: Unl
Heat Index: 37°   Visibility: 10mi
Dew Point: 28°   Wind: 6mph
Humidity: 70%   Direction: 310°NW
Pressure: 30.38"   Gusts: NA
Location:  35.08°N, 107.6°W
Report Text: KGNT 240756Z AUTO 31005KT 10SM CLR 03/M02 A3038 RMK AO2
Loading
Personal Weather Stations






























Interactive Weather Map New forecast layout! Learn more

10-Day Weather Forecast

Advertisements
Track Severe Weather on mobile